Time;durP1;ratioP1;P1;durP2;ratioP2;P2;SDS_P1;SDS_P2;PMS_P1;PMS_P2;Temp;Humidity;BMP_temperature;BMP_pressure;BME280_temperature;BME280_humidity;BME280_pressure;Samples;Min_cycle;Max_cycle;Signal;HPM_P1;HPM_P2
2021/08/27 00:01:47;;;;;;;2.08;1.20;;;22.70;54.80;;;;;;5039943;28;20051;-59
2021/08/27 00:04:13;;;;;;;2.05;1.35;;;22.70;54.80;;;;;;5027452;28;20152;-60
2021/08/27 00:06:38;;;;;;;2.17;1.30;;;22.70;54.80;;;;;;5023646;28;20426;-60
2021/08/27 00:09:04;;;;;;;2.03;1.40;;;22.70;54.80;;;;;;5025296;28;20048;-59
2021/08/27 00:11:29;;;;;;;2.60;1.50;;;22.70;54.80;;;;;;5024841;28;20032;-59
2021/08/27 00:13:55;;;;;;;2.63;1.40;;;22.70;55.30;;;;;;5029446;28;20463;-61
2021/08/27 00:16:21;;;;;;;2.10;1.50;;;22.70;54.80;;;;;;5023697;28;20344;-59
2021/08/27 00:18:47;;;;;;;1.70;1.27;;;22.70;54.80;;;;;;5019335;28;20079;-62
2021/08/27 00:21:12;;;;;;;1.80;1.20;;;22.70;54.80;;;;;;5024964;28;20068;-59
2021/08/27 00:23:38;;;;;;;2.00;1.33;;;22.70;54.80;;;;;;5028826;28;20071;-59
2021/08/27 00:26:03;;;;;;;1.48;1.20;;;22.70;54.80;;;;;;5026446;28;20029;-62
2021/08/27 00:28:29;;;;;;;2.70;1.40;;;22.70;54.80;;;;;;5027361;28;20048;-60
2021/08/27 00:30:57;;;;;;;1.85;1.30;;;22.70;54.80;;;;;;5028211;28;20049;-59
2021/08/27 00:33:24;;;;;;;1.55;1.20;;;22.70;54.80;;;;;;5020791;28;20097;-60
2021/08/27 00:35:49;;;;;;;2.17;1.20;;;22.70;54.80;;;;;;5012772;28;20691;-60
2021/08/27 00:38:15;;;;;;;2.15;1.40;;;22.70;54.80;;;;;;5024421;28;20032;-60
2021/08/27 00:40:42;;;;;;;2.47;1.30;;;22.60;54.70;;;;;;5022620;28;20068;-61
2021/08/27 00:43:11;;;;;;;1.85;1.02;;;22.70;54.80;;;;;;5023762;28;20046;-59
2021/08/27 00:45:36;;;;;;;1.50;1.08;;;22.60;54.70;;;;;;5016915;28;20164;-62
2021/08/27 00:48:02;;;;;;;2.03;1.33;;;22.60;54.70;;;;;;5019818;28;20125;-61
2021/08/27 00:50:28;;;;;;;2.10;1.35;;;22.60;55.20;;;;;;5020908;28;20389;-62
2021/08/27 00:52:53;;;;;;;1.70;1.10;;;22.60;54.70;;;;;;5008063;28;20033;-60
2021/08/27 00:55:20;;;;;;;2.03;1.30;;;22.60;54.70;;;;;;5012462;28;20052;-62
2021/08/27 00:57:46;;;;;;;2.40;1.50;;;22.60;54.70;;;;;;5027022;28;20025;-60
2021/08/27 01:00:12;;;;;;;1.95;1.40;;;22.60;54.70;;;;;;5026212;28;20033;-62
2021/08/27 01:02:38;;;;;;;1.98;1.13;;;22.60;54.70;;;;;;5024754;28;20045;-60
2021/08/27 01:05:06;;;;;;;2.33;1.40;;;22.60;54.70;;;;;;5017828;28;20022;-60
2021/08/27 01:07:36;;;;;;;2.35;1.20;;;22.60;54.70;;;;;;5020377;28;20511;-60
2021/08/27 01:10:16;;;;;;;1.88;1.30;;;22.60;54.70;;;;;;5021343;28;20026;-59
2021/08/27 01:13:01;;;;;;;1.60;1.17;;;22.60;54.70;;;;;;5009395;28;20407;-62
2021/08/27 01:15:44;;;;;;;2.30;1.27;;;22.60;54.70;;;;;;5015832;28;20022;-59
2021/08/27 01:18:20;;;;;;;1.65;1.05;;;22.60;54.70;;;;;;5019794;28;20087;-59
2021/08/27 01:21:30;;;;;;;1.83;1.20;;;22.60;54.80;;;;;;5039130;28;20053;-62
2021/08/27 01:23:58;;;;;;;1.85;1.30;;;22.60;54.70;;;;;;5019555;28;20354;-60
2021/08/27 01:26:29;;;;;;;2.03;1.30;;;22.60;54.80;;;;;;5019877;28;20022;-62
2021/08/27 01:28:56;;;;;;;1.63;1.15;;;22.60;54.70;;;;;;5026774;28;20590;-61
2021/08/27 01:31:40;;;;;;;1.70;1.13;;;22.60;54.80;;;;;;5027684;28;20115;-60
2021/08/27 01:34:05;;;;;;;1.98;1.20;;;22.60;54.80;;;;;;5033876;28;20036;-60
2021/08/27 01:36:36;;;;;;;1.55;1.10;;;22.60;54.80;;;;;;5018183;28;20030;-60
2021/08/27 01:39:05;;;;;;;1.70;1.17;;;22.60;54.80;;;;;;5024260;28;20025;-59
2021/08/27 01:41:33;;;;;;;1.75;1.10;;;22.60;54.80;;;;;;5015090;28;20033;-62
2021/08/27 01:44:04;;;;;;;1.93;1.33;;;22.60;54.80;;;;;;5025522;28;20136;-59
2021/08/27 01:46:32;;;;;;;1.73;1.27;;;22.60;54.80;;;;;;5017739;28;20394;-62
2021/08/27 01:48:58;;;;;;;1.70;1.17;;;22.60;54.80;;;;;;5027961;28;20030;-60
2021/08/27 01:51:26;;;;;;;1.42;1.02;;;22.60;54.80;;;;;;5042985;28;20033;-60
2021/08/27 01:53:52;;;;;;;1.83;1.20;;;22.50;54.70;;;;;;5031029;28;20104;-59
2021/08/27 01:56:18;;;;;;;1.88;1.20;;;22.60;54.80;;;;;;5020238;28;20034;-60
2021/08/27 01:58:45;;;;;;;1.40;1.00;;;22.50;54.70;;;;;;5027044;28;20055;-62
2021/08/27 02:01:12;;;;;;;1.60;1.10;;;22.60;54.80;;;;;;5034283;28;20453;-59
2021/08/27 02:03:38;;;;;;;2.10;1.20;;;22.50;54.70;;;;;;5022989;28;20033;-59
2021/08/27 02:06:04;;;;;;;1.65;1.08;;;22.50;54.70;;;;;;5011265;28;20121;-59
2021/08/27 02:08:34;;;;;;;1.48;1.00;;;22.50;54.70;;;;;;5021647;28;20446;-59
2021/08/27 02:11:00;;;;;;;1.50;1.10;;;22.50;54.70;;;;;;5027973;28;20136;-60
2021/08/27 02:13:27;;;;;;;1.38;0.95;;;22.50;54.70;;;;;;5020921;28;20029;-60
2021/08/27 02:15:53;;;;;;;2.10;1.40;;;22.50;54.80;;;;;;5019580;28;20048;-60
2021/08/27 02:18:18;;;;;;;1.63;1.23;;;22.50;54.70;;;;;;5026911;28;20029;-60
2021/08/27 02:20:44;;;;;;;1.42;0.93;;;22.50;54.70;;;;;;5025937;28;20535;-61
2021/08/27 02:23:12;;;;;;;2.10;1.10;;;22.50;54.70;;;;;;5020134;28;20061;-58
2021/08/27 02:25:42;;;;;;;1.60;1.05;;;22.50;54.70;;;;;;5023179;28;20034;-59
2021/08/27 02:28:08;;;;;;;1.77;1.20;;;22.50;54.70;;;;;;5017398;28;20053;-61
2021/08/27 02:30:35;;;;;;;2.00;1.30;;;22.50;54.80;;;;;;5029770;28;20038;-59
2021/08/27 02:33:07;;;;;;;1.65;1.13;;;22.50;54.70;;;;;;5038369;28;20091;-62
2021/08/27 02:35:34;;;;;;;1.40;1.10;;;22.50;54.70;;;;;;5043731;28;20022;-60
2021/08/27 02:38:00;;;;;;;1.90;1.20;;;22.50;54.70;;;;;;5025758;28;20456;-60
2021/08/27 02:40:26;;;;;;;1.83;1.20;;;22.50;54.70;;;;;;5019582;28;20053;-58
2021/08/27 02:42:52;;;;;;;1.95;1.38;;;22.50;54.70;;;;;;5031883;28;20065;-60
2021/08/27 02:45:17;;;;;;;1.80;1.20;;;22.50;54.80;;;;;;5037540;28;20050;-59
2021/08/27 02:47:43;;;;;;;1.42;1.15;;;22.50;54.70;;;;;;5017732;28;20111;-61
2021/08/27 02:50:12;;;;;;;1.65;1.10;;;22.50;54.70;;;;;;5016190;28;20049;-59
2021/08/27 02:53:01;;;;;;;1.75;1.10;;;22.50;54.70;;;;;;5019216;28;20052;-59
2021/08/27 02:55:35;;;;;;;1.75;1.10;;;22.50;54.80;;;;;;5029348;28;20029;-62
2021/08/27 02:58:27;;;;;;;1.50;1.10;;;22.40;54.70;;;;;;5017868;28;20732;-60
2021/08/27 03:00:57;;;;;;;1.15;0.98;;;22.40;54.70;;;;;;5005994;28;20140;-59
2021/08/27 03:03:26;;;;;;;1.60;1.20;;;22.40;54.80;;;;;;5029964;28;20051;-60
2021/08/27 03:05:57;;;;;;;1.75;1.15;;;22.50;54.80;;;;;;5024411;28;20512;-61
2021/08/27 03:08:24;;;;;;;1.45;1.10;;;22.40;54.70;;;;;;5025400;28;20041;-59
2021/08/27 03:11:01;;;;;;;1.90;1.13;;;22.40;54.80;;;;;;5025563;28;20026;-62
2021/08/27 03:13:39;;;;;;;1.40;1.00;;;22.40;54.70;;;;;;5026841;28;20040;-60
2021/08/27 03:16:09;;;;;;;1.40;1.00;;;22.40;54.80;;;;;;5043508;28;20547;-60
2021/08/27 03:18:54;;;;;;;1.58;1.10;;;22.40;54.70;;;;;;5011558;28;20496;-57
2021/08/27 03:21:43;;;;;;;1.60;1.10;;;22.40;54.70;;;;;;5022885;28;20278;-59
2021/08/27 03:24:17;;;;;;;1.88;1.20;;;22.40;54.70;;;;;;5025152;28;20037;-57
2021/08/27 03:26:46;;;;;;;1.90;1.20;;;22.40;54.80;;;;;;5016237;28;20029;-60
2021/08/27 03:29:15;;;;;;;1.55;1.10;;;22.40;54.70;;;;;;5020443;28;20104;-62
2021/08/27 03:31:41;;;;;;;1.80;1.15;;;22.40;54.70;;;;;;5019088;28;20048;-61
2021/08/27 03:34:08;;;;;;;1.63;0.95;;;22.40;54.70;;;;;;5026783;28;20091;-57
2021/08/27 03:36:35;;;;;;;1.63;1.00;;;22.40;54.80;;;;;;5012599;28;20474;-60
2021/08/27 03:39:03;;;;;;;1.65;1.10;;;22.40;54.70;;;;;;5008903;28;20640;-60
2021/08/27 03:41:31;;;;;;;1.77;1.10;;;22.40;54.70;;;;;;5027033;28;20056;-60
2021/08/27 03:43:57;;;;;;;2.05;1.27;;;22.40;54.70;;;;;;5016896;28;20033;-61
2021/08/27 03:46:23;;;;;;;2.78;1.20;;;22.40;54.70;;;;;;5016695;28;20048;-62
2021/08/27 03:48:50;;;;;;;1.38;1.00;;;22.40;54.80;;;;;;5009344;28;20022;-62
2021/08/27 03:51:17;;;;;;;1.00;0.90;;;22.40;54.70;;;;;;5012365;28;20076;-59
2021/08/27 03:53:44;;;;;;;1.83;1.20;;;22.40;54.70;;;;;;5013886;28;20457;-60
2021/08/27 03:56:11;;;;;;;1.50;1.00;;;22.40;54.70;;;;;;5029901;28;20171;-60
2021/08/27 03:58:38;;;;;;;1.58;1.20;;;22.40;54.70;;;;;;5016107;28;20108;-61
2021/08/27 04:01:04;;;;;;;1.38;1.00;;;22.40;54.70;;;;;;5024042;28;20113;-57
2021/08/27 04:03:30;;;;;;;1.75;1.10;;;22.40;54.70;;;;;;5037511;28;20033;-59
2021/08/27 04:06:14;;;;;;;1.75;1.13;;;22.40;54.70;;;;;;5009177;28;20022;-62
2021/08/27 04:08:42;;;;;;;1.95;1.00;;;22.40;54.70;;;;;;5007817;28;20018;-62
2021/08/27 04:11:10;;;;;;;1.60;1.10;;;22.40;54.80;;;;;;5028818;28;20108;-59
2021/08/27 04:13:36;;;;;;;1.33;1.00;;;22.40;54.70;;;;;;5042998;28;20539;-61
2021/08/27 04:16:02;;;;;;;1.60;1.00;;;22.40;54.80;;;;;;5017573;28;20102;-60
2021/08/27 04:18:27;;;;;;;1.90;1.10;;;22.40;54.70;;;;;;5011467;28;20033;-60
2021/08/27 04:20:54;;;;;;;1.67;1.10;;;22.40;54.80;;;;;;5024174;28;20518;-61
2021/08/27 04:23:19;;;;;;;1.40;0.90;;;22.40;54.70;;;;;;5024830;28;20033;-61
2021/08/27 04:25:45;;;;;;;2.45;1.05;;;22.30;54.70;;;;;;5013827;28;20405;-61
2021/08/27 04:28:11;;;;;;;1.60;1.10;;;22.40;54.70;;;;;;5008881;28;20022;-60
2021/08/27 04:30:37;;;;;;;1.70;1.10;;;22.40;54.70;;;;;;5017588;28;20243;-57
2021/08/27 04:33:04;;;;;;;1.17;0.93;;;22.30;54.70;;;;;;5019934;28;20025;-60
2021/08/27 04:35:29;;;;;;;1.38;0.93;;;22.30;54.70;;;;;;5022129;28;20025;-61
2021/08/27 04:37:56;;;;;;;1.63;1.00;;;22.30;54.70;;;;;;5012503;28;20040;-61
2021/08/27 04:40:22;;;;;;;1.23;1.00;;;22.30;54.70;;;;;;5014705;28;20128;-61
2021/08/27 04:42:48;;;;;;;1.33;1.00;;;22.30;54.70;;;;;;5022362;28;20045;-59
2021/08/27 04:45:15;;;;;;;1.27;1.00;;;22.30;54.70;;;;;;5019258;28;20030;-60
2021/08/27 04:47:40;;;;;;;1.40;1.08;;;22.30;54.70;;;;;;5008974;28;20536;-60
2021/08/27 04:50:07;;;;;;;1.30;1.00;;;22.30;55.20;;;;;;5017872;28;20025;-61
2021/08/27 04:52:32;;;;;;;1.63;1.10;;;22.30;54.70;;;;;;5029478;28;20087;-60
2021/08/27 04:54:58;;;;;;;1.60;1.10;;;22.30;54.70;;;;;;5008516;28;20789;-61
2021/08/27 04:57:24;;;;;;;1.30;1.00;;;22.30;54.70;;;;;;5020336;28;20141;-59
2021/08/27 04:59:50;;;;;;;1.38;1.00;;;22.30;54.70;;;;;;5023622;28;20104;-58
2021/08/27 05:02:16;;;;;;;1.75;1.05;;;22.30;54.70;;;;;;5033430;28;20060;-61
2021/08/27 05:04:42;;;;;;;1.20;0.90;;;22.30;54.70;;;;;;5042262;28;20405;-59
2021/08/27 05:07:08;;;;;;;1.48;1.10;;;22.30;54.70;;;;;;5024678;28;20021;-55
2021/08/27 05:09:35;;;;;;;1.88;1.23;;;22.30;54.70;;;;;;5012546;28;20025;-62
2021/08/27 05:12:01;;;;;;;1.20;1.00;;;22.30;54.70;;;;;;5029483;28;20592;-61
2021/08/27 05:14:27;;;;;;;1.48;1.10;;;22.30;54.70;;;;;;5035098;28;20029;-60
2021/08/27 05:16:52;;;;;;;1.27;1.00;;;22.30;54.70;;;;;;5017772;28;20460;-60
2021/08/27 05:19:18;;;;;;;1.70;1.10;;;22.30;54.70;;;;;;5011216;28;20029;-60
2021/08/27 05:21:44;;;;;;;1.70;1.20;;;22.30;54.70;;;;;;5022409;28;20446;-61
2021/08/27 05:24:09;;;;;;;1.35;0.95;;;22.30;54.70;;;;;;5028143;28;20037;-62
2021/08/27 05:26:36;;;;;;;1.35;1.00;;;22.30;54.70;;;;;;5015038;28;20037;-60
2021/08/27 05:29:03;;;;;;;1.27;1.00;;;22.30;54.70;;;;;;5021004;28;20026;-61
2021/08/27 05:31:29;;;;;;;1.30;0.90;;;22.30;54.70;;;;;;5014647;28;20025;-59
2021/08/27 05:33:55;;;;;;;1.90;1.10;;;22.30;54.80;;;;;;5024945;28;20029;-62
2021/08/27 05:36:21;;;;;;;1.35;1.10;;;22.30;54.80;;;;;;5025892;28;20527;-60
2021/08/27 05:38:47;;;;;;;1.85;1.20;;;22.30;54.80;;;;;;5019604;28;20033;-59
2021/08/27 05:41:14;;;;;;;1.30;1.00;;;22.30;54.80;;;;;;5020886;28;20056;-57
2021/08/27 05:43:39;;;;;;;1.55;1.08;;;22.30;54.80;;;;;;5019003;28;20044;-60
2021/08/27 05:46:05;;;;;;;1.40;1.00;;;22.30;54.80;;;;;;5010889;28;20751;-61
2021/08/27 05:48:31;;;;;;;1.75;1.10;;;22.30;54.80;;;;;;5018928;28;20037;-58
2021/08/27 05:50:56;;;;;;;1.48;1.00;;;22.30;54.90;;;;;;5028490;28;20036;-58
2021/08/27 05:53:22;;;;;;;1.30;0.90;;;22.30;54.90;;;;;;5016691;28;20041;-57
2021/08/27 05:55:48;;;;;;;1.10;0.90;;;22.30;54.90;;;;;;5010987;28;20037;-61
2021/08/27 05:58:13;;;;;;;1.10;0.85;;;22.30;54.90;;;;;;5011356;28;20112;-59
2021/08/27 06:00:39;;;;;;;1.55;1.02;;;22.30;54.90;;;;;;5012399;28;20026;-60
2021/08/27 06:03:04;;;;;;;1.10;0.90;;;22.30;54.90;;;;;;5008033;28;20033;-61
2021/08/27 06:05:30;;;;;;;1.20;0.90;;;22.20;54.90;;;;;;5026668;28;20810;-61
2021/08/27 06:07:56;;;;;;;1.60;1.00;;;22.20;54.80;;;;;;5018522;28;20043;-59
2021/08/27 06:10:22;;;;;;;1.20;0.90;;;22.30;54.90;;;;;;5022081;28;20088;-62
2021/08/27 06:12:47;;;;;;;1.40;1.00;;;22.20;54.90;;;;;;5024996;28;20068;-61
2021/08/27 06:15:15;;;;;;;1.38;1.05;;;22.20;54.90;;;;;;5023782;28;20068;-60
2021/08/27 06:17:41;;;;;;;1.90;1.20;;;22.20;54.90;;;;;;5021492;28;20108;-61
2021/08/27 06:20:08;;;;;;;1.38;0.90;;;22.20;54.90;;;;;;5024711;28;20123;-57
2021/08/27 06:22:34;;;;;;;1.50;1.00;;;22.20;54.90;;;;;;5029180;28;20086;-61
2021/08/27 06:25:00;;;;;;;1.20;1.00;;;22.20;54.90;;;;;;5012342;28;20026;-60
2021/08/27 06:27:26;;;;;;;1.85;0.95;;;22.20;54.90;;;;;;5017669;28;20034;-60
2021/08/27 06:29:51;;;;;;;1.33;0.90;;;22.20;54.90;;;;;;5026976;28;20103;-60
2021/08/27 06:32:17;;;;;;;1.40;1.00;;;22.20;54.90;;;;;;5023044;28;20061;-62
2021/08/27 06:34:43;;;;;;;1.80;1.10;;;22.20;54.90;;;;;;5024025;28;20044;-61
2021/08/27 06:37:09;;;;;;;1.15;1.00;;;22.20;54.90;;;;;;5025102;28;20496;-56
2021/08/27 06:39:35;;;;;;;1.92;1.00;;;22.20;54.90;;;;;;5027529;28;20029;-56
2021/08/27 06:42:01;;;;;;;1.10;0.90;;;22.20;54.90;;;;;;5028075;28;20041;-62
2021/08/27 06:44:26;;;;;;;1.35;0.90;;;22.20;54.90;;;;;;5023566;28;20373;-58
2021/08/27 06:46:52;;;;;;;1.15;0.80;;;22.20;55.00;;;;;;5020807;28;20026;-58
2021/08/27 06:49:18;;;;;;;1.45;0.90;;;22.20;54.90;;;;;;5028569;28;20136;-62
2021/08/27 06:51:44;;;;;;;1.60;1.10;;;22.20;54.90;;;;;;5019404;28;20073;-59
2021/08/27 06:54:10;;;;;;;1.30;0.90;;;22.20;54.90;;;;;;5027511;28;20048;-60
2021/08/27 06:56:35;;;;;;;1.35;0.90;;;22.20;54.90;;;;;;5025934;28;20074;-59
2021/08/27 06:59:01;;;;;;;1.90;1.05;;;22.20;54.90;;;;;;5021163;28;20117;-59
2021/08/27 07:01:28;;;;;;;1.88;0.98;;;22.20;55.00;;;;;;5017568;28;20030;-61
2021/08/27 07:03:54;;;;;;;1.67;1.08;;;22.20;54.90;;;;;;5027808;28;20053;-60
2021/08/27 07:06:20;;;;;;;1.40;1.00;;;22.20;55.00;;;;;;5041558;28;20480;-62
2021/08/27 07:08:47;;;;;;;2.42;1.10;;;22.20;55.00;;;;;;5026829;28;20057;-60
2021/08/27 07:11:15;;;;;;;1.50;1.10;;;22.20;55.00;;;;;;5016520;28;20041;-59
2021/08/27 07:13:41;;;;;;;1.25;0.98;;;22.20;55.00;;;;;;5043789;28;20078;-60
2021/08/27 07:16:07;;;;;;;1.45;1.10;;;22.20;55.00;;;;;;5009317;28;20022;-60
2021/08/27 07:18:32;;;;;;;1.58;1.00;;;22.20;55.10;;;;;;5020958;28;20393;-59
2021/08/27 07:20:58;;;;;;;1.38;0.98;;;22.20;55.10;;;;;;5012824;28;20033;-59
2021/08/27 07:23:24;;;;;;;1.25;0.85;;;22.20;55.10;;;;;;5019345;28;20042;-62
2021/08/27 07:25:50;;;;;;;2.28;1.20;;;22.20;55.10;;;;;;5009238;28;20037;-61
2021/08/27 07:28:16;;;;;;;2.30;1.00;;;22.20;55.10;;;;;;5011536;28;20104;-59
2021/08/27 07:30:42;;;;;;;1.27;0.90;;;22.20;55.10;;;;;;5014123;28;20022;-61
2021/08/27 07:33:07;;;;;;;1.20;0.90;;;22.20;55.10;;;;;;5022027;28;20028;-60
2021/08/27 07:35:33;;;;;;;1.30;1.05;;;22.20;55.10;;;;;;5011149;28;20030;-61
2021/08/27 07:37:59;;;;;;;1.77;0.98;;;22.20;55.10;;;;;;5016621;28;20542;-56
2021/08/27 07:40:25;;;;;;;1.30;0.90;;;22.20;55.10;;;;;;5007897;28;20034;-60
2021/08/27 07:42:51;;;;;;;1.35;0.90;;;22.20;55.10;;;;;;5021090;28;20124;-60
2021/08/27 07:45:17;;;;;;;1.63;1.00;;;22.20;55.10;;;;;;5028567;28;20037;-61
2021/08/27 07:47:44;;;;;;;1.67;1.05;;;22.20;55.10;;;;;;5017491;28;20022;-59
2021/08/27 07:50:11;;;;;;;0.95;0.85;;;22.20;55.20;;;;;;5028125;28;20080;-61
2021/08/27 07:52:37;;;;;;;1.23;0.90;;;22.20;55.10;;;;;;5018914;28;20030;-61
2021/08/27 07:55:04;;;;;;;1.33;0.90;;;22.10;55.10;;;;;;5026074;28;20103;-58
2021/08/27 07:57:30;;;;;;;2.28;1.30;;;22.20;55.10;;;;;;5019435;28;20058;-58
2021/08/27 07:59:56;;;;;;;1.80;1.20;;;22.20;55.10;;;;;;5027704;28;20076;-59
2021/08/27 08:02:21;;;;;;;1.60;1.05;;;22.20;55.10;;;;;;5021118;28;20104;-61
2021/08/27 08:04:47;;;;;;;1.65;1.10;;;22.20;55.20;;;;;;5008121;28;20434;-59
2021/08/27 08:07:13;;;;;;;1.88;1.10;;;22.20;55.20;;;;;;5014590;28;20045;-59
2021/08/27 08:09:39;;;;;;;1.92;1.10;;;22.20;55.20;;;;;;5018399;28;20049;-61
2021/08/27 08:12:05;;;;;;;1.35;1.00;;;22.10;55.10;;;;;;5018150;28;20046;-61
2021/08/27 08:14:31;;;;;;;1.60;1.10;;;22.10;55.10;;;;;;5009969;28;20122;-61
2021/08/27 08:16:56;;;;;;;1.65;0.90;;;22.10;55.10;;;;;;5014664;28;20045;-56
2021/08/27 08:19:22;;;;;;;1.35;0.90;;;22.20;55.20;;;;;;5012320;28;20055;-59
2021/08/27 08:21:48;;;;;;;1.35;0.98;;;22.10;55.10;;;;;;5025637;28;20143;-60
2021/08/27 08:24:14;;;;;;;1.65;1.02;;;22.20;55.10;;;;;;5024222;28;20037;-60
2021/08/27 08:26:40;;;;;;;1.10;1.00;;;22.10;55.10;;;;;;5019015;28;20030;-61
2021/08/27 08:29:06;;;;;;;1.38;1.10;;;22.10;55.10;;;;;;5024883;28;20041;-60
2021/08/27 08:31:32;;;;;;;1.27;0.88;;;22.20;55.10;;;;;;5024603;28;20120;-59
2021/08/27 08:33:58;;;;;;;1.90;1.10;;;22.20;55.10;;;;;;5023249;28;20489;-60
2021/08/27 08:36:23;;;;;;;1.77;1.02;;;22.20;55.10;;;;;;5031408;28;20033;-60
2021/08/27 08:38:50;;;;;;;1.30;1.00;;;22.20;55.10;;;;;;5025929;28;20033;-61
2021/08/27 08:41:18;;;;;;;1.25;1.00;;;22.10;55.10;;;;;;5022716;28;20116;-59
2021/08/27 08:43:45;;;;;;;1.25;0.90;;;22.10;55.10;;;;;;5011816;28;20600;-57
2021/08/27 08:46:13;;;;;;;1.20;0.95;;;22.10;55.60;;;;;;5024084;28;20066;-57
2021/08/27 08:48:40;;;;;;;1.45;0.93;;;22.10;55.10;;;;;;5021414;28;20111;-59
2021/08/27 08:51:06;;;;;;;1.33;1.00;;;22.10;55.10;;;;;;5018008;28;20041;-59
2021/08/27 08:53:36;;;;;;;2.60;1.30;;;22.10;55.10;;;;;;5020477;28;20044;-59
2021/08/27 08:56:05;;;;;;;1.30;1.00;;;22.20;55.10;;;;;;5023201;28;20025;-59
2021/08/27 08:58:31;;;;;;;;;;;22.20;55.10;;;;;;5025611;28;20021;-61
2021/08/27 09:00:58;;;;;;;1.45;1.10;;;22.20;55.10;;;;;;5018260;28;19924;-57
2021/08/27 09:03:24;;;;;;;1.30;0.93;;;22.20;55.10;;;;;;5013172;28;20034;-58
2021/08/27 09:05:50;;;;;;;1.50;0.90;;;22.10;55.00;;;;;;5007967;28;20462;-58
2021/08/27 09:08:38;;;;;;;1.42;1.00;;;22.10;55.00;;;;;;5018295;28;20028;-57
2021/08/27 09:11:36;;;;;;;1.65;1.20;;;22.10;55.10;;;;;;5024252;28;20025;-61
2021/08/27 09:14:03;;;;;;;2.03;1.20;;;22.10;55.00;;;;;;4982818;28;20398;-59
2021/08/27 09:16:32;;;;;;;1.55;0.95;;;22.20;55.10;;;;;;5008187;28;20029;-61
2021/08/27 09:18:58;;;;;;;1.25;1.00;;;22.10;55.00;;;;;;5018081;28;20144;-61
2021/08/27 09:21:36;;;;;;;2.10;1.00;;;22.20;55.10;;;;;;5019565;28;20051;-60
2021/08/27 09:24:24;;;;;;;1.27;1.00;;;22.20;55.00;;;;;;5016496;28;20029;-60
2021/08/27 09:27:00;;;;;;;1.30;1.00;;;22.20;55.00;;;;;;5015541;28;20048;-58
2021/08/27 09:29:39;;;;;;;2.33;1.10;;;22.20;55.00;;;;;;5023874;28;20026;-59
2021/08/27 09:32:17;;;;;;;1.50;1.00;;;22.20;55.00;;;;;;5024341;28;20081;-57
2021/08/27 09:34:43;;;;;;;1.20;0.90;;;22.20;55.00;;;;;;5023115;28;20056;-61
2021/08/27 09:37:09;;;;;;;2.03;1.15;;;22.20;55.00;;;;;;5017880;28;20144;-59
2021/08/27 09:39:35;;;;;;;1.67;1.00;;;22.20;55.00;;;;;;5028418;28;20192;-60
2021/08/27 09:42:02;;;;;;;2.33;1.13;;;22.20;55.00;;;;;;5017265;28;20069;-61
2021/08/27 09:44:28;;;;;;;1.58;1.10;;;22.20;55.00;;;;;;5034870;28;20064;-60
2021/08/27 09:46:54;;;;;;;1.00;0.90;;;22.20;55.00;;;;;;5026400;28;20140;-60
2021/08/27 09:49:30;;;;;;;1.40;1.00;;;22.20;55.00;;;;;;5005994;28;20041;-58
2021/08/27 09:51:57;;;;;;;1.10;1.00;;;22.20;54.90;;;;;;5025554;28;20033;-57
2021/08/27 09:54:27;;;;;;;1.70;1.10;;;22.20;54.90;;;;;;5018069;28;20468;-61
2021/08/27 09:56:55;;;;;;;1.23;1.02;;;22.20;54.90;;;;;;5010991;28;20097;-59
2021/08/27 09:59:38;;;;;;;1.50;1.00;;;22.20;54.90;;;;;;5016531;28;20440;-59
2021/08/27 10:02:13;;;;;;;1.05;0.90;;;22.20;54.80;;;;;;5010252;28;20239;-60
2021/08/27 10:04:54;;;;;;;1.55;0.90;;;22.20;54.80;;;;;;5010688;28;20540;-59
2021/08/27 10:07:27;;;;;;;1.13;0.90;;;22.20;54.80;;;;;;5019556;28;20022;-58
2021/08/27 10:09:54;;;;;;;1.40;0.95;;;22.20;54.80;;;;;;5015893;28;20036;-60
2021/08/27 10:12:20;;;;;;;1.33;1.00;;;22.20;54.80;;;;;;5009529;28;20061;-56
2021/08/27 10:14:46;;;;;;;1.30;1.00;;;22.20;54.70;;;;;;5009205;28;20573;-59
2021/08/27 10:17:14;;;;;;;1.40;1.00;;;22.20;54.70;;;;;;5019715;28;20137;-59
2021/08/27 10:19:39;;;;;;;1.20;0.90;;;22.20;54.70;;;;;;5011541;28;20033;-59
2021/08/27 10:22:05;;;;;;;1.05;0.85;;;22.20;54.60;;;;;;5015805;28;20026;-58
2021/08/27 10:24:31;;;;;;;1.73;0.90;;;22.20;54.60;;;;;;5019578;28;20039;-59
2021/08/27 10:26:59;;;;;;;1.15;0.82;;;22.20;54.60;;;;;;5016346;28;20506;-60
2021/08/27 10:29:25;;;;;;;2.15;1.00;;;22.30;54.60;;;;;;5020932;28;20623;-57
2021/08/27 10:31:51;;;;;;;1.58;0.90;;;22.30;54.60;;;;;;5028455;28;20064;-59
2021/08/27 10:34:37;;;;;;;2.00;1.00;;;22.30;54.60;;;;;;5016967;28;20410;-60
2021/08/27 10:37:03;;;;;;;1.55;0.93;;;22.30;54.60;;;;;;5020141;28;20057;-60
2021/08/27 10:39:37;;;;;;;1.30;0.90;;;22.30;54.60;;;;;;5025330;28;20124;-60
2021/08/27 10:42:04;;;;;;;1.23;0.90;;;22.30;54.60;;;;;;5022938;28;20331;-60
2021/08/27 10:44:51;;;;;;;1.35;0.90;;;22.30;54.60;;;;;;5019073;28;20029;-60
2021/08/27 10:47:17;;;;;;;1.98;1.10;;;22.30;54.60;;;;;;5019533;28;20497;-55
2021/08/27 10:49:46;;;;;;;0.98;0.80;;;22.30;54.70;;;;;;5033144;28;20334;-58
2021/08/27 10:52:38;;;;;;;1.58;1.00;;;22.30;54.60;;;;;;5010163;28;20033;-58
2021/08/27 10:55:10;;;;;;;1.35;1.00;;;22.30;54.70;;;;;;5036526;28;20044;-55
2021/08/27 10:57:45;;;;;;;2.08;1.00;;;22.30;54.70;;;;;;5021436;28;20029;-56
2021/08/27 11:00:12;;;;;;;1.88;1.05;;;22.30;54.60;;;;;;5014994;28;20033;-59
2021/08/27 11:02:54;;;;;;;1.33;0.90;;;22.30;54.60;;;;;;5025581;28;20033;-60
2021/08/27 11:05:37;;;;;;;1.30;0.90;;;22.30;54.60;;;;;;5022092;28;20033;-58
2021/08/27 11:08:14;;;;;;;1.38;1.00;;;22.30;54.60;;;;;;5025474;28;20453;-59
2021/08/27 11:11:02;;;;;;;1.27;0.90;;;22.40;54.70;;;;;;5022667;28;20270;-59
2021/08/27 11:13:37;;;;;;;1.58;1.00;;;22.40;54.70;;;;;;5018215;28;20041;-55
2021/08/27 11:16:36;;;;;;;1.67;1.02;;;22.30;54.60;;;;;;5017926;28;20088;-58
2021/08/27 11:19:22;;;;;;;;;;;22.40;54.60;;;;;;5006356;28;20126;-58
2021/08/27 11:21:47;;;;;;;2.17;1.00;;;22.40;54.70;;;;;;5009989;28;20409;-60
2021/08/27 11:24:18;;;;;;;1.50;1.00;;;22.40;54.60;;;;;;5013668;28;20025;-58
2021/08/27 11:27:08;;;;;;;1.70;1.10;;;22.40;54.60;;;;;;5014144;28;20052;-58
2021/08/27 11:29:42;;;;;;;1.63;1.00;;;22.30;54.50;;;;;;5015533;28;20072;-59
2021/08/27 11:32:17;;;;;;;1.42;1.00;;;22.40;54.60;;;;;;5015836;28;20030;-59
2021/08/27 11:34:53;;;;;;;1.60;1.00;;;22.30;54.50;;;;;;5011959;28;20496;-60
2021/08/27 11:37:21;;;;;;;1.70;0.90;;;22.40;54.60;;;;;;5014720;28;20041;-59
2021/08/27 11:39:48;;;;;;;1.13;1.00;;;22.40;54.60;;;;;;5030862;28;20030;-60
2021/08/27 11:42:19;;;;;;;1.83;1.15;;;22.40;55.00;;;;;;5014315;28;20144;-59
2021/08/27 11:44:55;;;;;;;1.10;0.85;;;22.40;54.50;;;;;;5018684;28;20049;-59
2021/08/27 11:47:21;;;;;;;1.52;1.10;;;22.40;54.40;;;;;;5017145;28;20496;-57
2021/08/27 11:50:01;;;;;;;1.77;0.98;;;22.40;54.40;;;;;;5013287;28;20025;-53
2021/08/27 11:52:30;;;;;;;1.38;1.08;;;22.40;54.40;;;;;;5014991;28;20104;-60
2021/08/27 11:55:17;;;;;;;1.52;1.00;;;22.40;54.40;;;;;;5014842;28;20053;-59
2021/08/27 11:57:53;;;;;;;1.77;1.00;;;22.40;54.30;;;;;;5019035;28;20405;-59
2021/08/27 12:00:21;;;;;;;1.52;1.00;;;22.40;54.30;;;;;;5014774;28;20486;-56
2021/08/27 12:02:55;;;;;;;1.40;1.00;;;22.40;54.30;;;;;;5011377;28;20087;-60
2021/08/27 12:05:22;;;;;;;1.50;1.00;;;22.40;54.30;;;;;;5027254;28;20037;-58
2021/08/27 12:08:01;;;;;;;1.55;1.10;;;22.40;54.80;;;;;;5012357;28;20482;-59
2021/08/27 12:10:30;;;;;;;1.08;0.80;;;22.40;54.30;;;;;;5018493;28;20030;-59
2021/08/27 12:12:56;;;;;;;1.60;0.90;;;22.40;54.40;;;;;;5021571;28;20053;-58
2021/08/27 12:15:49;;;;;;;1.75;1.00;;;22.40;54.40;;;;;;5013263;28;20469;-60
2021/08/27 12:18:17;;;;;;;1.80;1.00;;;22.40;54.40;;;;;;5012254;28;20106;-59
2021/08/27 12:20:48;;;;;;;1.73;1.00;;;22.40;54.40;;;;;;5008798;28;20026;-59
2021/08/27 12:23:20;;;;;;;1.38;1.00;;;22.40;54.40;;;;;;5020178;28;20181;-58
2021/08/27 12:26:09;;;;;;;1.25;1.05;;;22.40;54.40;;;;;;5008419;28;20103;-56
2021/08/27 12:28:38;;;;;;;1.60;1.08;;;22.40;54.40;;;;;;5014571;28;20080;-59
2021/08/27 12:31:05;;;;;;;2.00;1.00;;;22.40;54.40;;;;;;5020376;28;20033;-59
2021/08/27 12:33:36;;;;;;;2.10;1.10;;;22.40;54.40;;;;;;5033448;28;20311;-57
2021/08/27 12:36:03;;;;;;;1.33;0.90;;;22.40;54.40;;;;;;5023931;28;20037;-58
2021/08/27 12:38:28;;;;;;;1.83;0.90;;;22.40;54.40;;;;;;5009556;28;20723;-57
2021/08/27 12:40:54;;;;;;;1.60;1.10;;;22.40;54.40;;;;;;5016267;28;20041;-58
2021/08/27 12:43:24;;;;;;;3.30;1.23;;;22.40;54.40;;;;;;5017614;28;20568;-57
2021/08/27 12:45:55;;;;;;;2.25;1.17;;;22.40;54.40;;;;;;5021484;28;20041;-60
2021/08/27 12:48:28;;;;;;;2.17;1.10;;;22.40;54.30;;;;;;5027040;28;20029;-59
2021/08/27 12:51:02;;;;;;;1.42;1.05;;;22.40;54.30;;;;;;5030928;28;20026;-56
2021/08/27 12:53:32;;;;;;;1.95;1.00;;;22.50;54.30;;;;;;5015738;28;20057;-60
2021/08/27 12:56:10;;;;;;;;;;;22.40;54.30;;;;;;5031832;28;20040;-59
2021/08/27 12:58:36;;;;;;;1.63;1.00;;;22.40;54.30;;;;;;5017456;28;19913;-59